Allensville, OH

11:46 PM EDT on September 03, 2015 (GMT -0400)
Ohio University | | Change Station
CLOSE
Current Station
Airport
Location: Athens,
Elevation: 764 ft
Nearby Weather Stations

Elev 764 ft 39.21 °N, 82.23 °W | Updated 11 minutes ago

Clear
Clear
68 °F
Feels Like 68 °F
N
0
Wind Variable Wind from North

Today
High -- | Low -- °F
--% Chance of Precip.
Yesterday
High -- | Low -- °F
Precip. -- in
7:00 AM 7:57 PM
Waning Gibbous, 64% visible
Pressure 29.99 in
Visibility 7.0 miles
Clouds Clear
Dew Point 68 °F
Humidity 100%
Rainfall 0.00 in
Snow Depth Not available.
UV 0 out of 12
Pollen 10.40 out of 12
Air Quality Not available.
Flu Activity Not available.
METAR KUNI 040335Z AUTO 00000KT 7SM CLR 20/20 A2999 RMK AO2 T02020202
Pressure 29.99 in
Visibility 7.0 miles
Clouds Clear
Dew Point 68 °F
Humidity 100%
Rainfall 0.00 in
Snow Depth Not available.
UV 0 out of 12
Pollen 10.40 out of 12
Air Quality Not available.
Flu Activity Not available.
METAR KUNI 040335Z AUTO 00000KT 7SM CLR 20/20 A2999 RMK AO2 T02020202

10-Day Weather Forecast

×

Almanac

Astronomy

Sep. 03, 2015 Rise Set
Actual Time
Civil Twilight
Nautical Twilight
Astronomical Twilight
Moon
Length of Visible Light
Length of Day
Tomorrow will be .
, % of the Moon is Illuminated

Today's Extremes

State Highs State Lows

Community

WunderPhotos

Upload Photos

1,852,118 photos uploaded!

WunderBlogs® & News

Nearby

Air Quality

  Air Quality AQ Index Pollutant
Not available.

Snow Depth

Station Depth Elevation

Earthquake Activity

City Distance Mag. Time & Date
Minimum magnitude displayed is 2.5.

Coastal Water Temperatures

Place Temperature

Stations

Nearby Weather Stations

Station Location Temp. Windchill Dew Point Humidity Wind Precip. Elev Updated Type